TimeCST,TemperatureF,Dew PointF,Humidity,Sea Level PressureIn,VisibilityMPH,Wind Direction,Wind SpeedMPH,Gust SpeedMPH,PrecipitationIn,Events,Conditions,WindDirDegrees,DateUTC
12:53 AM,57.9,55.0,90,29.99,10.0,North,13.8,-,0.00,,Overcast,350,2013-01-02 06:53:00
1:53 AM,57.0,54.0,89,30.01,10.0,NNW,12.7,-,N/A,,Overcast,340,2013-01-02 07:53:00
2:53 AM,55.9,54.0,93,30.02,7.0,North,11.5,-,N/A,,Overcast,350,2013-01-02 08:53:00
3:30 AM,55.4,53.6,94,30.01,10.0,North,9.2,-,N/A,,Overcast,360,2013-01-02 09:30:00
3:53 AM,55.9,53.1,90,30.02,10.0,North,10.4,-,N/A,,Overcast,350,2013-01-02 09:53:00
4:04 AM,55.4,53.6,94,30.01,10.0,North,9.2,-,N/A,,Overcast,360,2013-01-02 10:04:00
4:36 AM,55.4,51.8,88,30.02,6.0,North,10.4,18.4,0.00,Rain,Light Rain,350,2013-01-02 10:36:00
4:53 AM,54.0,52.0,93,30.03,4.0,North,12.7,-,0.00,Rain,Light Rain,350,2013-01-02 10:53:00
5:53 AM,53.1,50.0,89,30.05,10.0,North,9.2,-,0.00,,Overcast,360,2013-01-02 11:53:00
6:03 AM,53.6,50.0,88,30.04,10.0,North,11.5,-,N/A,,Overcast,360,2013-01-02 12:03:00
6:46 AM,53.6,50.0,88,30.06,10.0,North,9.2,-,N/A,,Overcast,350,2013-01-02 12:46:00
6:53 AM,53.1,50.0,89,30.06,10.0,North,10.4,-,N/A,,Overcast,350,2013-01-02 12:53:00
7:53 AM,53.1,48.9,86,30.09,10.0,North,12.7,19.6,N/A,,Overcast,10,2013-01-02 13:53:00
8:53 AM,55.4,48.2,77,30.11,10.0,North,9.2,-,N/A,,Mostly Cloudy,360,2013-01-02 14:53:00
9:53 AM,55.9,46.9,72,30.13,10.0,NNE,10.4,-,N/A,,Mostly Cloudy,20,2013-01-02 15:53:00
10:53 AM,57.9,46.9,67,30.12,10.0,North,10.4,-,N/A,,Mostly Cloudy,360,2013-01-02 16:53:00
11:53 AM,55.9,46.0,69,30.10,10.0,North,10.4,-,N/A,,Overcast,350,2013-01-02 17:53:00
12:53 PM,55.9,46.0,69,30.07,10.0,North,10.4,-,N/A,,Overcast,350,2013-01-02 18:53:00
1:53 PM,54.0,45.0,72,30.06,10.0,North,8.1,-,N/A,,Overcast,350,2013-01-02 19:53:00
2:53 PM,54.0,45.0,72,30.07,10.0,North,10.4,-,N/A,,Overcast,360,2013-01-02 20:53:00
3:53 PM,54.0,45.0,72,30.09,10.0,NNW,9.2,-,N/A,,Overcast,340,2013-01-02 21:53:00
4:53 PM,53.1,45.0,74,30.12,10.0,NNW,9.2,-,N/A,,Overcast,330,2013-01-02 22:53:00
5:53 PM,51.1,44.1,77,30.15,10.0,NNW,13.8,-,N/A,,Overcast,330,2013-01-02 23:53:00
6:53 PM,50.0,43.0,77,30.15,10.0,North,13.8,-,N/A,,Overcast,350,2013-01-03 00:53:00
7:53 PM,50.0,44.1,80,30.15,10.0,North,11.5,18.4,N/A,,Overcast,350,2013-01-03 01:53:00
8:53 PM,48.9,42.1,77,30.16,10.0,North,10.4,20.7,N/A,,Overcast,350,2013-01-03 02:53:00
9:53 PM,48.0,42.1,80,30.17,10.0,North,13.8,-,N/A,,Overcast,350,2013-01-03 03:53:00
10:53 PM,48.0,42.1,80,30.16,10.0,North,9.2,-,N/A,,Overcast,10,2013-01-03 04:53:00
11:53 PM,46.9,42.1,83,30.17,10.0,North,13.8,-,0.00,Rain,Light Rain,350,2013-01-03 05:53:00